Time;durP1;ratioP1;P1;durP2;ratioP2;P2;SDS_P1;SDS_P2;PMS_P1;PMS_P2;Temp;Humidity;BMP_temperature;BMP_pressure;BME280_temperature;BME280_humidity;BME280_pressure;Samples;Min_cycle;Max_cycle;Signal;HPM_P1;HPM_P2
2022/03/20 00:01:32;;;;;;;43.72;19.20;;;;;;;5.59;65.15;102320.50;5002472;28;20041;-89
2022/03/20 00:03:59;;;;;;;37.90;17.73;;;;;;;5.57;65.44;102321.50;5004278;28;20038;-89
2022/03/20 00:06:26;;;;;;;41.33;18.52;;;;;;;5.24;66.30;102320.78;4994334;28;20113;-89
2022/03/20 00:08:54;;;;;;;34.72;16.73;;;;;;;5.07;67.25;102316.44;5011036;28;20129;-90
2022/03/20 00:11:20;;;;;;;41.53;18.48;;;;;;;5.07;66.87;102321.69;5031748;28;20038;-88
2022/03/20 00:13:50;;;;;;;38.65;17.90;;;;;;;5.05;68.00;102318.28;4998258;28;20049;-89
2022/03/20 00:16:53;;;;;;;36.05;17.27;;;;;;;5.12;67.82;102319.66;5032757;28;20033;-90
2022/03/20 00:19:45;;;;;;;31.17;15.93;;;;;;;5.20;67.27;102320.91;5033785;28;20114;-91
2022/03/20 00:22:11;;;;;;;35.13;16.23;;;;;;;5.29;67.72;102316.09;5008019;28;20040;-90
2022/03/20 00:24:42;;;;;;;32.67;16.25;;;;;;;5.44;67.02;102321.34;5008911;28;20066;-89
2022/03/20 00:27:15;;;;;;;41.50;16.63;;;;;;;5.59;66.58;102324.91;4982192;28;20046;-92
2022/03/20 00:29:41;;;;;;;32.72;15.82;;;;;;;5.72;66.47;102324.13;5010659;28;20073;-91
2022/03/20 00:32:11;;;;;;;32.42;18.00;;;;;;;5.72;66.05;102321.50;5012679;28;20069;-91
2022/03/20 00:34:37;;;;;;;37.85;19.58;;;;;;;5.71;66.84;102318.94;4994648;28;20034;-90
2022/03/20 00:37:07;;;;;;;38.63;17.25;;;;;;;5.31;68.05;102320.34;5022995;28;20034;-90
2022/03/20 00:39:33;;;;;;;31.38;16.08;;;;;;;5.07;69.68;102321.69;5004792;28;20042;-91
2022/03/20 00:41:59;;;;;;;30.90;15.85;;;;;;;4.93;71.10;102318.94;4992108;28;20056;-90
2022/03/20 00:44:25;;;;;;;30.17;16.95;;;;;;;5.36;69.20;102320.09;5009493;28;20117;-91
2022/03/20 00:46:51;;;;;;;28.23;16.10;;;;;;;5.58;68.37;102320.59;5025269;28;20030;-92
2022/03/20 00:49:17;;;;;;;33.33;16.50;;;;;;;5.25;69.45;102314.56;4992398;28;20042;-92
2022/03/20 00:51:43;;;;;;;33.63;16.95;;;;;;;5.10;70.67;102316.25;5005436;28;20038;-91
2022/03/20 00:54:11;;;;;;;32.92;16.77;;;;;;;4.91;71.83;102312.91;5023552;28;20069;-89
2022/03/20 00:56:40;;;;;;;29.35;15.77;;;;;;;4.92;72.37;102322.50;4989234;28;20034;-90
2022/03/20 00:59:09;;;;;;;31.58;15.73;;;;;;;4.87;73.51;102332.41;4988581;28;20053;-92
2022/03/20 01:01:37;;;;;;;28.40;16.42;;;;;;;4.95;73.07;102322.31;5006633;28;20461;-91
2022/03/20 01:04:03;;;;;;;35.55;15.85;;;;;;;4.80;74.95;102321.38;4990606;28;20033;-91
2022/03/20 01:06:30;;;;;;;33.60;15.75;;;;;;;4.88;74.31;102319.19;5006686;28;20052;-90
2022/03/20 01:08:56;;;;;;;31.85;16.08;;;;;;;4.76;74.69;102324.25;5008108;28;20093;-92
2022/03/20 01:11:44;;;;;;;34.08;17.17;;;;;;;4.73;75.10;102321.78;4991511;28;20034;-91
2022/03/20 01:14:11;;;;;;;31.10;16.70;;;;;;;4.69;75.29;102321.94;4994242;28;20038;-92
2022/03/20 01:16:39;;;;;;;34.80;17.00;;;;;;;4.69;76.57;102327.19;5005988;28;20046;-93
2022/03/20 01:19:06;;;;;;;34.40;16.35;;;;;;;4.95;75.41;102322.31;5021816;28;20022;-91
2022/03/20 01:21:31;;;;;;;35.22;17.10;;;;;;;5.19;73.84;102334.16;5022235;28;20107;-91
2022/03/20 01:24:05;;;;;;;35.75;16.52;;;;;;;5.02;73.30;102331.59;5005832;28;20036;-91
2022/03/20 01:26:32;;;;;;;36.38;12.52;;;;;;;4.75;75.30;102326.00;5004124;28;20045;-91
2022/03/20 01:28:58;;;;;;;35.65;17.00;;;;;;;4.69;76.42;102327.19;5005766;28;20050;-89
2022/03/20 01:31:24;;;;;;;36.95;17.40;;;;;;;4.69;78.22;102324.56;5007785;28;20037;-90
2022/03/20 01:33:49;;;;;;;33.17;17.67;;;;;;;4.87;78.03;102327.16;5009341;28;20037;-91
2022/03/20 01:36:16;;;;;;;33.15;17.50;;;;;;;5.10;77.50;102332.03;4997544;28;20064;-90
2022/03/20 01:38:48;;;;;;;28.05;17.52;;;;;;;5.18;77.25;102330.66;5002308;28;20109;-90
2022/03/20 01:41:17;;;;;;;30.60;17.33;;;;;;;5.27;77.33;102329.31;5002531;28;20037;-91
2022/03/20 01:43:54;;;;;;;41.53;19.67;;;;;;;5.57;77.01;102326.75;5011692;28;20061;-91
2022/03/20 01:46:23;;;;;;;36.20;19.60;;;;;;;5.45;78.03;102323.06;5004949;28;20440;-89
2022/03/20 01:48:51;;;;;;;39.42;19.17;;;;;;;5.36;78.47;102323.56;4987739;28;20045;-90
2022/03/20 01:51:18;;;;;;;37.75;19.92;;;;;;;5.33;79.32;102317.63;5021337;28;20041;-90
2022/03/20 01:53:44;;;;;;;44.97;19.63;;;;;;;5.36;78.41;102317.47;5002966;28;20040;-92
2022/03/20 01:56:10;;;;;;;37.65;19.17;;;;;;;5.45;78.42;102315.16;5003709;28;20049;-88
2022/03/20 01:58:39;;;;;;;47.08;21.17;;;;;;;5.51;77.48;102317.44;5017249;28;20083;-89
2022/03/20 02:01:04;;;;;;;43.85;21.60;;;;;;;5.23;79.54;102312.03;5002747;28;20038;-87
2022/03/20 02:03:30;;;;;;;42.83;21.20;;;;;;;5.18;80.14;102314.91;5016318;28;20083;-88
2022/03/20 02:05:56;;;;;;;37.78;19.08;;;;;;;5.16;80.79;102310.66;5015768;28;20060;-89
2022/03/20 02:08:26;;;;;;;40.22;20.52;;;;;;;5.11;81.13;102307.44;4998006;28;20090;-88
2022/03/20 02:10:55;;;;;;;41.38;21.10;;;;;;;5.08;81.81;102307.59;4998648;28;20393;-90
2022/03/20 02:13:22;;;;;;;39.40;22.15;;;;;;;5.18;82.18;102303.53;5014022;28;20033;-88
2022/03/20 02:15:51;;;;;;;44.00;22.23;;;;;;;5.21;82.73;102306.00;5015268;28;20080;-88
2022/03/20 02:18:20;;;;;;;48.65;21.65;;;;;;;5.20;82.98;102305.13;5015546;28;20044;-89
2022/03/20 02:20:49;;;;;;;44.83;23.20;;;;;;;5.59;80.47;102303.88;5014739;28;20088;-89
2022/03/20 02:23:15;;;;;;;44.08;21.60;;;;;;;5.38;81.56;102300.66;4981944;28;20078;-89
2022/03/20 02:25:49;;;;;;;41.85;21.30;;;;;;;5.53;80.16;102305.06;5015596;28;20045;-89
2022/03/20 02:28:15;;;;;;;41.40;22.38;;;;;;;5.50;81.10;102305.22;5016989;28;20120;-89
2022/03/20 02:30:45;;;;;;;40.55;23.20;;;;;;;5.65;80.66;102304.38;5016750;28;20084;-90
2022/03/20 02:33:10;;;;;;;43.63;22.10;;;;;;;5.75;79.88;102307.31;4998037;28;20037;-90
2022/03/20 02:35:37;;;;;;;45.60;21.73;;;;;;;5.72;79.67;102299.63;4998118;28;20489;-89
2022/03/20 02:38:03;;;;;;;44.42;21.95;;;;;;;5.98;79.23;102303.41;5015587;28;20041;-90
2022/03/20 02:40:29;;;;;;;46.83;23.80;;;;;;;6.05;78.99;102302.13;5010801;28;20028;-89
2022/03/20 02:42:55;;;;;;;48.65;21.42;;;;;;;5.92;78.50;102304.63;4998516;28;20096;-90
2022/03/20 02:45:29;;;;;;;38.80;21.85;;;;;;;6.00;78.48;102310.25;5014697;28;20026;-89
2022/03/20 02:47:57;;;;;;;45.80;23.38;;;;;;;5.91;79.00;102304.69;5015284;28;20037;-89
2022/03/20 02:50:24;;;;;;;39.55;23.17;;;;;;;6.08;78.89;102308.03;4997245;28;20037;-88
2022/03/20 02:53:04;;;;;;;40.35;22.13;;;;;;;6.05;78.77;102312.63;4997224;28;20030;-90
2022/03/20 02:55:35;;;;;;;44.88;23.00;;;;;;;6.06;78.92;102309.09;4997701;28;20041;-89
2022/03/20 02:58:02;;;;;;;49.03;24.00;;;;;;;5.97;78.70;102309.59;5014907;28;20045;-89
2022/03/20 03:00:30;;;;;;;44.05;23.15;;;;;;;5.97;79.27;102313.06;4997884;28;20053;-91
2022/03/20 03:02:59;;;;;;;51.13;23.08;;;;;;;5.95;78.96;102311.47;5015250;28;20070;-88
2022/03/20 03:05:26;;;;;;;40.35;22.95;;;;;;;5.96;78.54;102318.44;4997980;28;20048;-90
2022/03/20 03:11:01;;;;;;;43.63;23.67;;;;;;;6.12;77.64;102320.09;4997634;28;20038;-89
2022/03/20 03:13:34;;;;;;;52.17;24.45;;;;;;;5.88;78.61;102321.50;4981350;28;20030;-91
2022/03/20 03:16:09;;;;;;;41.08;23.40;;;;;;;5.87;78.51;102325.06;4981640;28;20048;-87
2022/03/20 03:18:36;;;;;;;47.95;24.38;;;;;;;5.81;78.42;102322.75;4997863;28;20030;-87
2022/03/20 03:21:02;;;;;;;40.13;22.83;;;;;;;6.03;77.91;102330.31;4996123;28;20037;-89
2022/03/20 03:23:28;;;;;;;45.47;23.45;;;;;;;5.65;78.67;102329.81;5012884;28;20026;-85
2022/03/20 03:25:55;;;;;;;40.28;23.00;;;;;;;5.57;79.24;102325.00;4996859;28;20061;-86
2022/03/20 03:28:22;;;;;;;48.55;23.35;;;;;;;5.78;78.71;102327.34;4998407;28;20046;-88
2022/03/20 03:30:49;;;;;;;49.55;24.42;;;;;;;5.40;80.38;102330.31;5016049;28;20038;-88
2022/03/20 03:33:21;;;;;;;43.38;22.17;;;;;;;5.28;81.42;102328.38;4981747;28;20497;-89
2022/03/20 03:35:53;;;;;;;52.13;24.10;;;;;;;5.09;82.14;102325.06;4999075;28;20100;-90
2022/03/20 03:38:26;;;;;;;42.30;22.00;;;;;;;5.41;80.89;102328.56;4982224;28;20038;-88
2022/03/20 03:40:57;;;;;;;51.28;22.38;;;;;;;5.54;79.93;102332.19;5015766;28;20033;-91
2022/03/20 03:43:24;;;;;;;41.90;22.65;;;;;;;5.48;79.55;102333.41;4999316;28;20030;-88
2022/03/20 03:45:50;;;;;;;49.95;21.60;;;;;;;5.37;80.14;102334.94;5001106;28;20033;-89
2022/03/20 03:48:16;;;;;;;36.22;20.95;;;;;;;5.26;80.24;102330.25;5018337;28;20039;-89
2022/03/20 03:50:44;;;;;;;41.72;21.88;;;;;;;5.28;79.78;102330.16;5000877;28;20068;-89
2022/03/20 03:53:10;;;;;;;43.33;22.13;;;;;;;5.02;80.75;102323.69;5018758;28;20030;-90
2022/03/20 03:55:37;;;;;;;37.78;20.92;;;;;;;4.85;81.03;102329.84;4985070;28;20413;-89
2022/03/20 03:58:03;;;;;;;39.28;21.27;;;;;;;4.58;82.08;102329.53;5017705;28;20037;-88
2022/03/20 04:00:32;;;;;;;37.72;20.63;;;;;;;4.38;82.30;102336.72;5000808;28;20038;-87
2022/03/20 04:02:59;;;;;;;36.35;21.10;;;;;;;4.36;82.51;102333.31;4984307;28;20481;-91
2022/03/20 04:05:28;;;;;;;35.90;19.90;;;;;;;4.19;83.19;102339.44;5017546;28;20026;-90
2022/03/20 04:07:54;;;;;;;45.70;22.42;;;;;;;4.18;84.37;102339.53;5018377;28;20098;-88
2022/03/20 04:10:21;;;;;;;40.33;22.17;;;;;;;4.33;83.86;102344.00;5000557;28;20504;-87
2022/03/20 04:12:46;;;;;;;37.63;20.33;;;;;;;4.69;81.81;102345.56;5017666;28;20053;-88
2022/03/20 04:15:14;;;;;;;44.47;22.05;;;;;;;4.63;80.98;102342.41;5017505;28;20034;-87
2022/03/20 04:17:42;;;;;;;41.47;20.48;;;;;;;4.73;80.56;102350.66;5018185;28;20044;-89
2022/03/20 04:20:09;;;;;;;42.38;22.70;;;;;;;4.37;84.14;102353.41;5017934;28;20034;-88
2022/03/20 04:22:37;;;;;;;45.97;22.35;;;;;;;4.38;84.33;102349.84;5017604;28;20065;-88
2022/03/20 04:25:04;;;;;;;42.35;22.90;;;;;;;4.30;85.13;102352.03;5017039;28;20046;-87
2022/03/20 04:27:31;;;;;;;42.20;22.35;;;;;;;4.40;85.21;102355.88;5000192;28;20048;-87
2022/03/20 04:29:57;;;;;;;43.40;21.60;;;;;;;4.67;81.77;102352.66;5018626;28;20037;-88
2022/03/20 04:32:23;;;;;;;41.33;21.55;;;;;;;4.93;77.31;102353.94;5016943;28;20033;-89
2022/03/20 04:34:49;;;;;;;41.78;20.77;;;;;;;5.22;73.04;102357.63;4999090;28;20381;-90
2022/03/20 04:37:18;;;;;;;41.58;22.33;;;;;;;5.19;72.88;102358.66;5016850;28;20049;-86
2022/03/20 04:39:44;;;;;;;41.45;21.83;;;;;;;4.89;75.08;102364.69;5016731;28;20034;-87
2022/03/20 04:42:10;;;;;;;38.15;22.10;;;;;;;4.60;78.85;102364.44;5020870;28;20038;-85
2022/03/20 04:44:40;;;;;;;45.72;23.73;;;;;;;4.60;78.50;102361.81;4999732;28;20049;-88
2022/03/20 04:58:28;;;;;;;41.80;22.05;;;;;;;4.52;80.68;102371.84;5016376;28;20042;-85
2022/03/20 05:00:55;;;;;;;44.08;22.75;;;;;;;4.30;82.80;102376.50;5016634;28;20037;-86
2022/03/20 05:03:22;;;;;;;38.65;23.08;;;;;;;4.32;82.52;102382.50;4998446;28;20041;-86
2022/03/20 05:05:48;;;;;;;42.20;23.08;;;;;;;4.48;82.52;102385.19;5016478;28;20109;-88
2022/03/20 05:08:14;;;;;;;36.75;23.15;;;;;;;4.70;81.57;102380.56;5017144;28;20030;-89
2022/03/20 05:13:23;;;;;;;41.10;20.90;;;;;;;4.93;75.05;102387.25;5017147;28;20041;-87
2022/03/20 05:15:52;;;;;;;44.88;22.02;;;;;;;4.69;76.21;102392.84;5016984;28;20034;-88
2022/03/20 05:18:19;;;;;;;46.35;23.00;;;;;;;4.69;76.74;102395.47;4998581;28;20061;-85
2022/03/20 05:20:45;;;;;;;51.17;22.55;;;;;;;4.75;77.78;102403.94;5016754;28;20060;-87
2022/03/20 05:23:11;;;;;;;33.85;21.10;;;;;;;4.96;74.92;102400.22;4998647;28;20042;-86
2022/03/20 05:25:37;;;;;;;43.20;22.85;;;;;;;5.00;75.42;102412.28;4998750;28;20040;-86
2022/03/20 05:28:04;;;;;;;49.78;22.08;;;;;;;4.94;73.63;102415.22;5016565;28;20390;-88
2022/03/20 05:30:31;;;;;;;38.97;22.77;;;;;;;4.99;75.61;102413.19;5016616;28;20041;-87
2022/03/20 05:33:00;;;;;;;38.63;21.55;;;;;;;5.14;75.26;102422.91;5017430;28;20485;-87
2022/03/20 05:35:25;;;;;;;43.05;21.92;;;;;;;5.30;70.34;102418.56;5017620;28;20611;-90
2022/03/20 05:37:51;;;;;;;38.65;21.90;;;;;;;5.30;72.62;102426.44;4999824;28;20045;-89
2022/03/20 05:40:17;;;;;;;41.80;22.02;;;;;;;5.38;71.08;102415.50;5018224;28;20026;-88
2022/03/20 05:42:43;;;;;;;39.22;22.80;;;;;;;5.45;71.74;102417.72;5000060;28;20464;-89
2022/03/20 05:45:10;;;;;;;42.45;22.67;;;;;;;5.68;71.31;102424.34;5019084;28;20044;-88
2022/03/20 05:47:37;;;;;;;40.80;23.98;;;;;;;5.60;71.61;102426.56;5018004;28;20045;-90
2022/03/20 05:50:05;;;;;;;40.60;24.67;;;;;;;5.47;72.63;102431.63;5001087;28;20057;-89
2022/03/20 05:52:34;;;;;;;47.47;24.00;;;;;;;5.33;73.48;102430.69;4991774;28;20413;-87
2022/03/20 05:55:02;;;;;;;39.65;22.92;;;;;;;5.24;73.19;102429.38;5005528;28;20038;-90
2022/03/20 06:00:24;;;;;;;39.15;21.77;;;;;;;5.60;70.90;102430.00;5021283;28;20034;-87
2022/03/20 06:02:50;;;;;;;39.25;22.15;;;;;;;5.92;70.61;102437.97;5017238;28;20034;-87
2022/03/20 06:05:16;;;;;;;34.42;20.88;;;;;;;6.38;67.46;102444.97;5019752;28;20037;-90
2022/03/20 06:07:47;;;;;;;31.83;19.83;;;;;;;6.99;65.56;102450.13;5000889;28;20025;-88
2022/03/20 06:10:15;;;;;;;37.72;21.98;;;;;;;7.08;63.86;102459.25;5020529;28;20101;-90
2022/03/20 06:12:42;;;;;;;42.88;21.60;;;;;;;7.56;62.55;102453.59;5000621;28;20513;-88
2022/03/20 06:15:08;;;;;;;37.10;22.40;;;;;;;6.85;64.25;102458.00;5015642;28;20448;-88
2022/03/20 06:17:45;;;;;;;35.60;21.35;;;;;;;6.40;65.82;102456.25;5016819;28;20030;-86
2022/03/20 06:20:13;;;;;;;43.60;22.90;;;;;;;5.88;67.99;102458.34;5018859;28;20034;-90
2022/03/20 06:22:40;;;;;;;35.00;21.92;;;;;;;6.43;65.95;102463.97;4986992;28;20038;-85
2022/03/20 06:25:08;;;;;;;35.92;21.48;;;;;;;7.64;61.58;102466.34;5020546;28;20099;-89
2022/03/20 06:27:50;;;;;;;36.90;22.25;;;;;;;7.61;60.43;102463.88;5001468;28;20022;-90
2022/03/20 06:30:17;;;;;;;35.83;21.48;;;;;;;7.39;60.79;102466.97;4999065;28;20034;-91
2022/03/20 06:32:45;;;;;;;36.83;21.45;;;;;;;7.53;60.67;102474.06;5000554;28;20069;-92
2022/03/20 06:35:12;;;;;;;34.10;21.20;;;;;;;7.52;60.17;102475.88;5000684;28;20115;-90
2022/03/20 06:37:42;;;;;;;39.22;21.98;;;;;;;7.49;60.91;102475.22;5013100;28;20037;-87
2022/03/20 06:40:08;;;;;;;36.85;20.88;;;;;;;7.44;60.66;102478.13;5016047;28;20045;-89
2022/03/20 06:42:35;;;;;;;35.50;21.75;;;;;;;7.78;60.04;102477.72;5016224;28;20401;-91
2022/03/20 06:45:03;;;;;;;39.63;21.38;;;;;;;8.02;58.32;102482.41;5017288;28;20034;-91
2022/03/20 06:47:32;;;;;;;39.13;21.05;;;;;;;8.15;58.29;102484.13;4997998;28;20030;-86
2022/03/20 06:49:58;;;;;;;36.58;20.83;;;;;;;8.22;57.49;102492.50;4998283;28;20034;-89
2022/03/20 06:52:24;;;;;;;39.13;21.75;;;;;;;8.43;56.40;102490.31;4985453;28;20034;-92
2022/03/20 06:55:13;;;;;;;39.35;21.45;;;;;;;8.06;57.74;102482.09;5019353;28;20102;-89
2022/03/20 06:57:46;;;;;;;39.80;22.00;;;;;;;8.83;54.88;102490.22;4987735;28;20080;-89
2022/03/20 07:00:14;;;;;;;40.20;21.98;;;;;;;8.96;54.35;102499.97;5003274;28;20049;-90
2022/03/20 07:03:03;;;;;;;38.38;21.50;;;;;;;9.01;53.84;102498.72;4999238;28;20088;-88
2022/03/20 07:05:30;;;;;;;37.03;21.13;;;;;;;9.94;52.34;102489.56;4998527;28;20037;-90
2022/03/20 07:08:06;;;;;;;38.33;22.17;;;;;;;10.29;50.67;102503.78;4984224;28;20029;-90
2022/03/20 07:10:32;;;;;;;38.38;21.38;;;;;;;10.44;49.53;102512.44;4972344;28;20049;-90
2022/03/20 07:15:57;;;;;;;44.67;23.13;;;;;;;9.05;52.50;102515.25;5020517;28;20049;-89
2022/03/20 07:18:23;;;;;;;42.53;23.35;;;;;;;9.30;51.95;102512.59;5005325;28;20041;-91
2022/03/20 07:20:50;;;;;;;42.60;23.48;;;;;;;10.00;50.05;102521.75;5020659;28;20030;-93
2022/03/20 07:23:16;;;;;;;40.47;23.67;;;;;;;9.74;50.97;102518.28;5008315;28;20421;-92
2022/03/20 07:31:13;;;;;;;44.67;22.33;;;;;;;10.05;49.31;102524.06;5011396;28;20050;-89
2022/03/20 07:33:39;;;;;;;36.50;21.65;;;;;;;10.94;46.91;102532.53;4999605;28;20117;-89
2022/03/20 07:36:06;;;;;;;39.33;23.15;;;;;;;11.02;47.58;102532.78;5014905;28;20044;-86
2022/03/20 07:38:33;;;;;;;37.30;22.77;;;;;;;12.06;44.81;102542.38;5013485;28;20095;-87
2022/03/20 07:41:01;;;;;;;39.63;23.08;;;;;;;11.58;44.69;102536.41;5009688;28;20542;-85
2022/03/20 07:43:27;;;;;;;38.08;23.83;;;;;;;11.68;44.11;102532.91;5018594;28;20398;-90
2022/03/20 07:45:53;;;;;;;40.08;22.90;;;;;;;11.47;45.37;102539.88;4993981;28;20440;-90
2022/03/20 07:48:23;;;;;;;49.63;23.02;;;;;;;12.33;43.07;102540.97;5009425;28;20034;-86
2022/03/20 07:50:50;;;;;;;41.70;22.95;;;;;;;12.36;43.16;102534.59;4997960;28;20038;-85
2022/03/20 07:53:17;;;;;;;39.85;22.58;;;;;;;11.63;45.23;102543.06;5021102;28;20060;-91
2022/03/20 07:55:49;;;;;;;39.13;23.20;;;;;;;12.78;42.50;102547.00;5025976;28;20118;-90
2022/03/20 07:58:19;;;;;;;40.20;23.00;;;;;;;12.46;43.70;102546.16;4986665;28;20133;-84
2022/03/20 08:00:46;;;;;;;34.97;21.63;;;;;;;12.58;43.51;102538.97;5017055;28;20042;-86
2022/03/20 08:03:12;;;;;;;38.22;23.33;;;;;;;12.79;41.73;102548.69;5013911;28;20049;-84
2022/03/20 08:05:40;;;;;;;40.58;22.08;;;;;;;12.54;43.15;102549.03;5013525;28;20514;-84
2022/03/20 08:08:06;;;;;;;36.38;23.23;;;;;;;13.25;40.28;102555.53;4996005;28;20068;-83
2022/03/20 08:10:32;;;;;;;37.38;22.10;;;;;;;13.18;40.18;102549.88;5014082;28;20033;-83
2022/03/20 08:12:58;;;;;;;42.58;23.13;;;;;;;13.05;40.44;102549.19;4995925;28;20089;-83
2022/03/20 08:15:26;;;;;;;35.47;22.20;;;;;;;12.46;42.53;102545.31;5015949;28;20034;-86
2022/03/20 08:17:53;;;;;;;43.55;24.25;;;;;;;12.87;40.74;102551.56;5013994;28;20038;-83
2022/03/20 08:20:19;;;;;;;35.63;23.08;;;;;;;12.88;40.50;102557.72;5013806;28;20053;-86
2022/03/20 08:22:45;;;;;;;41.00;23.48;;;;;;;13.29;39.96;102554.31;5013962;28;20060;-82
2022/03/20 08:25:14;;;;;;;35.05;22.40;;;;;;;12.43;41.57;102547.22;5000562;28;20045;-86
2022/03/20 08:27:53;;;;;;;40.45;22.05;;;;;;;12.98;41.00;102553.34;5015978;28;20120;-85
2022/03/20 08:30:20;;;;;;;38.47;22.55;;;;;;;13.50;38.93;102559.59;5015899;28;20069;-83
2022/03/20 08:32:49;;;;;;;36.03;22.15;;;;;;;13.24;39.28;102552.03;5020304;28;20145;-82
2022/03/20 08:35:16;;;;;;;38.05;22.05;;;;;;;13.51;38.75;102546.16;5023998;28;20040;-83
2022/03/20 08:37:43;;;;;;;37.30;22.33;;;;;;;13.54;38.61;102545.06;5023199;28;20045;-84
2022/03/20 08:40:16;;;;;;;37.03;22.38;;;;;;;13.95;38.25;102542.31;5018175;28;20033;-84
2022/03/20 08:42:44;;;;;;;39.28;22.17;;;;;;;14.25;38.10;102552.09;5017503;28;20084;-84
2022/03/20 08:45:11;;;;;;;36.78;22.80;;;;;;;13.87;39.02;102536.78;5000312;28;20038;-83
2022/03/20 08:47:38;;;;;;;35.22;21.58;;;;;;;14.06;39.16;102539.53;5019127;28;20385;-85
2022/03/20 08:50:04;;;;;;;34.88;21.20;;;;;;;13.93;39.05;102537.09;5018524;28;20469;-83
2022/03/20 08:52:31;;;;;;;39.75;22.92;;;;;;;13.60;40.52;102544.50;5017569;28;20107;-85
2022/03/20 08:54:56;;;;;;;37.40;22.17;;;;;;;13.30;40.27;102537.34;5017199;28;20377;-83
2022/03/20 08:57:27;;;;;;;32.38;21.15;;;;;;;14.37;38.12;102540.34;5012235;28;20033;-85
2022/03/20 08:59:56;;;;;;;35.60;22.40;;;;;;;14.84;37.65;102539.56;5005622;28;20034;-90
2022/03/20 09:02:22;;;;;;;42.72;23.00;;;;;;;13.92;38.97;102535.41;5017758;28;20038;-82
2022/03/20 09:04:48;;;;;;;36.50;22.17;;;;;;;14.25;39.89;102533.41;5018126;28;20038;-82
2022/03/20 09:07:13;;;;;;;35.13;21.95;;;;;;;13.94;39.46;102536.13;5006755;28;20038;-83
2022/03/20 09:09:39;;;;;;;47.00;23.00;;;;;;;14.89;38.68;102537.28;5008120;28;20054;-81
2022/03/20 09:12:05;;;;;;;38.78;22.50;;;;;;;15.00;38.45;102542.50;5012400;28;20033;-83
2022/03/20 09:14:30;;;;;;;36.72;23.23;;;;;;;14.54;38.59;102531.66;5019797;28;20034;-82
2022/03/20 09:19:40;;;;;;;36.60;22.05;;;;;;;15.10;36.90;102541.63;5005956;28;20034;-84
2022/03/20 09:22:06;;;;;;;34.42;22.55;;;;;;;15.45;36.59;102537.34;5014040;28;20044;-82
2022/03/20 09:24:35;;;;;;;34.08;21.60;;;;;;;15.24;36.42;102530.53;5023765;28;20055;-82
2022/03/20 09:27:02;;;;;;;37.97;22.77;;;;;;;14.27;37.87;102534.13;5007058;28;20117;-81
2022/03/20 09:29:28;;;;;;;48.15;23.13;;;;;;;15.01;37.75;102528.13;5013764;28;20042;-82
2022/03/20 09:31:55;;;;;;;35.17;21.60;;;;;;;15.55;36.10;102547.19;4999250;28;20085;-81
2022/03/20 09:34:20;;;;;;;37.30;21.83;;;;;;;15.47;35.34;102538.06;5011439;28;20536;-86
2022/03/20 09:36:46;;;;;;;39.50;22.92;;;;;;;15.40;35.43;102538.78;4994763;28;20033;-87
2022/03/20 09:39:11;;;;;;;33.33;22.25;;;;;;;15.32;36.15;102527.94;5016235;28;20469;-79
2022/03/20 09:41:43;;;;;;;44.15;22.67;;;;;;;15.31;36.04;102523.63;5016178;28;20536;-82
2022/03/20 09:44:10;;;;;;;34.67;20.75;;;;;;;16.03;34.07;102530.00;5015895;28;20452;-81
2022/03/20 09:46:36;;;;;;;41.85;21.73;;;;;;;16.01;34.01;102536.44;5015479;28;20032;-80
2022/03/20 09:49:05;;;;;;;36.17;21.50;;;;;;;15.94;33.55;102527.38;5016577;28;20556;-81
2022/03/20 09:51:32;;;;;;;32.40;19.63;;;;;;;15.98;33.81;102536.75;4999016;28;20120;-82
2022/03/20 09:53:58;;;;;;;31.52;20.33;;;;;;;15.20;35.20;102523.78;5001008;28;20108;-81
2022/03/20 09:56:23;;;;;;;35.50;20.80;;;;;;;14.96;36.29;102519.72;5017058;28;20461;-87
2022/03/20 09:58:49;;;;;;;32.40;19.95;;;;;;;15.76;34.60;102526.44;5017132;28;20045;-80
2022/03/20 10:01:16;;;;;;;30.88;18.88;;;;;;;15.88;34.38;102519.91;5019968;28;20056;-82
2022/03/20 10:03:42;;;;;;;32.33;19.67;;;;;;;16.22;32.87;102518.31;5039628;28;20022;-81
2022/03/20 10:06:17;;;;;;;34.92;19.80;;;;;;;15.78;34.01;102525.31;5039614;28;20018;-85
2022/03/20 10:08:59;;;;;;;33.20;20.45;;;;;;;16.39;33.04;102508.63;5038244;28;20069;-84
2022/03/20 10:11:25;;;;;;;36.40;20.38;;;;;;;16.51;33.30;102523.47;5007369;28;20061;-84
2022/03/20 10:14:13;;;;;;;33.20;20.58;;;;;;;16.46;33.86;102520.44;5000200;28;20440;-82
2022/03/20 10:16:44;;;;;;;29.85;19.20;;;;;;;17.28;32.28;102520.16;4997008;28;20041;-81
2022/03/20 10:19:22;;;;;;;36.85;20.00;;;;;;;17.64;31.53;102523.56;5015076;28;20025;-82
2022/03/20 10:21:51;;;;;;;30.77;19.77;;;;;;;17.42;31.87;102516.91;5014813;28;20039;-82
2022/03/20 10:24:21;;;;;;;34.22;20.02;;;;;;;16.79;32.93;102511.75;5014903;28;20029;-81
2022/03/20 10:26:59;;;;;;;96.00;56.72;;;;;;;16.96;32.42;102513.56;4998757;28;20043;-86
2022/03/20 10:29:25;;;;;;;37.78;19.67;;;;;;;16.62;31.54;102519.78;4998320;28;20046;-86
2022/03/20 10:31:53;;;;;;;33.55;20.25;;;;;;;16.93;32.37;102516.56;5015033;28;20114;-84
2022/03/20 10:34:20;;;;;;;34.70;19.23;;;;;;;17.47;31.21;102501.16;5015486;28;20508;-85
2022/03/20 10:36:48;;;;;;;36.13;21.40;;;;;;;18.05;30.76;102507.53;5014154;28;20034;-87
2022/03/20 10:39:16;;;;;;;37.10;20.08;;;;;;;17.80;29.84;102510.25;5014286;28;20026;-83
2022/03/20 10:41:45;;;;;;;31.85;19.33;;;;;;;19.02;28.41;102507.66;4980359;28;20132;-86
2022/03/20 10:44:14;;;;;;;28.30;19.60;;;;;;;18.69;27.66;102513.22;4997558;28;20116;-84
2022/03/20 10:46:40;;;;;;;31.85;20.05;;;;;;;17.91;29.06;102513.50;5014250;28;20045;-86
2022/03/20 10:49:06;;;;;;;30.63;19.58;;;;;;;16.88;30.17;102516.16;5014054;28;20037;-87
2022/03/20 10:51:40;;;;;;;31.70;19.13;;;;;;;17.38;28.90;102496.75;4996436;28;20113;-87
2022/03/20 10:54:10;;;;;;;34.40;19.98;;;;;;;17.71;28.82;102505.84;5013273;28;20038;-84
2022/03/20 10:56:50;;;;;;;32.58;20.85;;;;;;;18.25;28.16;102497.34;5013721;28;20087;-84
2022/03/20 10:59:16;;;;;;;29.60;20.13;;;;;;;19.43;26.73;102504.94;5014126;28;20117;-84
2022/03/20 11:01:45;;;;;;;30.50;20.02;;;;;;;18.93;27.66;102500.63;5013632;28;20118;-84
2022/03/20 11:04:12;;;;;;;32.58;20.35;;;;;;;18.70;28.21;102502.28;5013861;28;20477;-83
2022/03/20 11:06:48;;;;;;;34.70;20.27;;;;;;;19.15;27.77;102504.47;5013621;28;20069;-83
2022/03/20 11:09:15;;;;;;;32.05;19.33;;;;;;;17.93;28.20;102492.69;5019161;28;20396;-83
2022/03/20 11:11:48;;;;;;;27.73;18.65;;;;;;;18.32;27.32;102492.16;5018197;28;20033;-83
2022/03/20 11:14:15;;;;;;;29.90;17.92;;;;;;;18.49;26.32;102488.50;5018353;28;20061;-86
2022/03/20 11:16:42;;;;;;;29.75;19.17;;;;;;;17.58;28.59;102492.03;4997160;28;20045;-85
2022/03/20 11:19:13;;;;;;;29.40;20.27;;;;;;;17.05;29.83;102491.19;5018460;28;20121;-87
2022/03/20 11:21:44;;;;;;;29.77;18.35;;;;;;;17.29;27.86;102489.69;5015322;28;20044;-88
2022/03/20 11:24:13;;;;;;;31.10;18.75;;;;;;;17.01;27.61;102484.47;5015388;28;20030;-85
2022/03/20 11:26:42;;;;;;;32.38;18.15;;;;;;;16.67;28.69;102490.72;4985181;28;20038;-88
2022/03/20 11:29:11;;;;;;;28.63;18.77;;;;;;;17.66;28.07;102484.91;5015356;28;20045;-90
2022/03/20 11:31:37;;;;;;;34.35;19.23;;;;;;;18.58;26.39;102482.16;4998500;28;20485;-89
2022/03/20 11:34:08;;;;;;;31.98;19.05;;;;;;;19.02;25.94;102475.41;5006916;28;20080;-88
2022/03/20 11:37:09;;;;;;;29.50;18.35;;;;;;;19.87;24.92;102471.16;5013078;28;20066;-85
2022/03/20 11:39:37;;;;;;;31.45;17.95;;;;;;;18.68;25.62;102473.94;4996816;28;20100;-82
2022/03/20 11:42:24;;;;;;;31.08;18.70;;;;;;;18.63;26.19;102477.09;5006292;28;20034;-89
2022/03/20 11:45:08;;;;;;;33.83;18.67;;;;;;;17.09;27.37;102464.94;4997866;28;20362;-87
2022/03/20 11:47:39;;;;;;;33.67;18.52;;;;;;;17.82;27.43;102457.28;5013463;28;20038;-87
2022/03/20 11:50:17;;;;;;;30.98;18.75;;;;;;;18.09;26.97;102470.47;5013835;28;20555;-89
2022/03/20 11:53:00;;;;;;;34.55;20.40;;;;;;;17.90;27.16;102454.63;4997912;28;20030;-89